sensor_id;sensor_type;location;lat;lon;timestamp;pressure;altitude;pressure_sealevel;temperature;humidity
4745;BME280;2386;42.138;24.746;2024-03-02T00:00:10;99271.19;;;10.93;100.00
4745;BME280;2386;42.138;24.746;2024-03-02T00:02:45;99274.66;;;10.77;100.00
4745;BME280;2386;42.138;24.746;2024-03-02T00:05:12;99268.72;;;10.92;100.00
4745;BME280;2386;42.138;24.746;2024-03-02T00:07:42;99265.47;;;10.78;100.00
4745;BME280;2386;42.138;24.746;2024-03-02T00:10:10;99266.31;;;10.67;100.00
4745;BME280;2386;42.138;24.746;2024-03-02T00:12:42;99266.91;;;10.69;100.00
4745;BME280;2386;42.138;24.746;2024-03-02T00:17:54;99272.06;;;10.82;100.00
4745;BME280;2386;42.138;24.746;2024-03-02T00:20:22;99263.81;;;10.77;100.00
4745;BME280;2386;42.138;24.746;2024-03-02T00:22:49;99263.19;;;10.46;100.00
4745;BME280;2386;42.138;24.746;2024-03-02T00:25:16;99258.66;;;10.64;100.00
4745;BME280;2386;42.138;24.746;2024-03-02T00:27:42;99262.66;;;10.73;100.00
4745;BME280;2386;42.138;24.746;2024-03-02T00:30:38;99257.34;;;10.66;100.00
4745;BME280;2386;42.138;24.746;2024-03-02T00:33:07;99252.47;;;10.80;100.00
4745;BME280;2386;42.138;24.746;2024-03-02T00:35:33;99263.13;;;10.70;100.00
4745;BME280;2386;42.138;24.746;2024-03-02T00:38:06;99263.59;;;10.67;100.00
4745;BME280;2386;42.138;24.746;2024-03-02T00:40:31;99248.97;;;10.68;100.00
4745;BME280;2386;42.138;24.746;2024-03-02T00:42:57;99252.03;;;10.71;100.00
4745;BME280;2386;42.138;24.746;2024-03-02T00:45:23;99251.31;;;10.76;100.00
4745;BME280;2386;42.138;24.746;2024-03-02T00:47:50;99246.94;;;10.75;100.00
4745;BME280;2386;42.138;24.746;2024-03-02T00:50:15;99241.91;;;10.67;100.00
4745;BME280;2386;42.138;24.746;2024-03-02T00:52:41;99240.47;;;10.76;100.00
4745;BME280;2386;42.138;24.746;2024-03-02T00:55:07;99235.72;;;10.83;100.00
4745;BME280;2386;42.138;24.746;2024-03-02T00:57:34;99239.09;;;10.62;100.00
4745;BME280;2386;42.138;24.746;2024-03-02T01:00:00;99231.16;;;10.72;100.00
4745;BME280;2386;42.138;24.746;2024-03-02T01:02:26;99233.25;;;10.81;100.00
4745;BME280;2386;42.138;24.746;2024-03-02T01:04:52;99229.38;;;10.77;100.00
4745;BME280;2386;42.138;24.746;2024-03-02T01:07:17;99224.63;;;10.84;100.00
4745;BME280;2386;42.138;24.746;2024-03-02T01:09:42;99219.53;;;10.60;100.00
4745;BME280;2386;42.138;24.746;2024-03-02T01:12:08;99219.63;;;10.65;100.00
4745;BME280;2386;42.138;24.746;2024-03-02T01:14:33;99214.47;;;10.51;100.00
4745;BME280;2386;42.138;24.746;2024-03-02T01:17:00;99210.59;;;10.47;100.00
4745;BME280;2386;42.138;24.746;2024-03-02T01:19:28;99215.59;;;10.39;100.00
4745;BME280;2386;42.138;24.746;2024-03-02T01:21:54;99214.56;;;10.57;100.00
4745;BME280;2386;42.138;24.746;2024-03-02T01:24:19;99214.19;;;10.65;100.00
4745;BME280;2386;42.138;24.746;2024-03-02T01:26:44;99205.13;;;10.59;100.00
4745;BME280;2386;42.138;24.746;2024-03-02T01:29:10;99209.47;;;10.72;100.00
4745;BME280;2386;42.138;24.746;2024-03-02T01:31:35;99208.53;;;10.66;100.00
4745;BME280;2386;42.138;24.746;2024-03-02T01:34:00;99206.34;;;10.51;100.00
4745;BME280;2386;42.138;24.746;2024-03-02T01:36:26;99204.41;;;10.35;100.00
4745;BME280;2386;42.138;24.746;2024-03-02T01:38:51;99208.78;;;10.36;100.00
4745;BME280;2386;42.138;24.746;2024-03-02T01:41:17;99208.84;;;10.41;100.00
4745;BME280;2386;42.138;24.746;2024-03-02T01:43:42;99208.13;;;10.46;100.00
4745;BME280;2386;42.138;24.746;2024-03-02T01:46:07;99212.59;;;10.52;100.00
4745;BME280;2386;42.138;24.746;2024-03-02T01:48:34;99201.28;;;10.43;100.00
4745;BME280;2386;42.138;24.746;2024-03-02T01:50:59;99197.88;;;10.48;100.00
4745;BME280;2386;42.138;24.746;2024-03-02T01:53:25;99209.00;;;10.35;100.00
4745;BME280;2386;42.138;24.746;2024-03-02T01:55:50;99211.75;;;10.51;100.00
4745;BME280;2386;42.138;24.746;2024-03-02T01:58:16;99206.47;;;10.45;100.00
4745;BME280;2386;42.138;24.746;2024-03-02T02:00:41;99204.41;;;10.64;100.00
4745;BME280;2386;42.138;24.746;2024-03-02T02:03:07;99203.03;;;10.49;100.00
4745;BME280;2386;42.138;24.746;2024-03-02T02:05:33;99200.91;;;10.51;100.00
4745;BME280;2386;42.138;24.746;2024-03-02T02:08:01;99198.81;;;10.42;100.00
4745;BME280;2386;42.138;24.746;2024-03-02T02:10:26;99197.50;;;10.44;100.00
4745;BME280;2386;42.138;24.746;2024-03-02T02:12:52;99196.09;;;10.42;100.00
4745;BME280;2386;42.138;24.746;2024-03-02T02:15:31;99192.75;;;10.23;100.00
4745;BME280;2386;42.138;24.746;2024-03-02T02:17:58;99193.44;;;10.18;100.00
4745;BME280;2386;42.138;24.746;2024-03-02T02:20:24;99198.03;;;10.18;100.00
4745;BME280;2386;42.138;24.746;2024-03-02T02:23:07;99189.94;;;10.30;100.00
4745;BME280;2386;42.138;24.746;2024-03-02T02:25:35;99192.88;;;10.16;100.00
4745;BME280;2386;42.138;24.746;2024-03-02T02:28:00;99191.44;;;10.37;100.00
4745;BME280;2386;42.138;24.746;2024-03-02T02:30:28;99188.66;;;10.49;100.00
4745;BME280;2386;42.138;24.746;2024-03-02T02:32:54;99194.72;;;10.39;100.00
4745;BME280;2386;42.138;24.746;2024-03-02T02:35:19;99196.75;;;10.32;100.00
4745;BME280;2386;42.138;24.746;2024-03-02T02:37:46;99193.81;;;10.34;100.00
4745;BME280;2386;42.138;24.746;2024-03-02T02:40:12;99186.09;;;10.42;100.00
4745;BME280;2386;42.138;24.746;2024-03-02T02:42:38;99191.28;;;10.44;100.00
4745;BME280;2386;42.138;24.746;2024-03-02T02:45:05;99189.31;;;10.39;100.00
4745;BME280;2386;42.138;24.746;2024-03-02T02:47:31;99191.44;;;10.37;100.00
4745;BME280;2386;42.138;24.746;2024-03-02T02:49:57;99184.31;;;10.48;100.00
4745;BME280;2386;42.138;24.746;2024-03-02T02:52:22;99189.47;;;10.49;100.00
4745;BME280;2386;42.138;24.746;2024-03-02T02:54:48;99184.84;;;10.62;100.00
4745;BME280;2386;42.138;24.746;2024-03-02T02:57:13;99188.63;;;10.61;100.00
4745;BME280;2386;42.138;24.746;2024-03-02T02:59:39;99189.09;;;10.58;100.00
4745;BME280;2386;42.138;24.746;2024-03-02T03:02:04;99184.75;;;10.57;100.00
4745;BME280;2386;42.138;24.746;2024-03-02T03:04:30;99197.00;;;10.59;100.00
4745;BME280;2386;42.138;24.746;2024-03-02T03:06:55;99188.75;;;10.54;100.00
4745;BME280;2386;42.138;24.746;2024-03-02T03:09:21;99191.56;;;10.19;100.00
4745;BME280;2386;42.138;24.746;2024-03-02T03:11:46;99182.13;;;10.33;100.00
4745;BME280;2386;42.138;24.746;2024-03-02T03:14:12;99183.97;;;10.44;100.00
4745;BME280;2386;42.138;24.746;2024-03-02T03:16:37;99194.72;;;10.39;100.00
4745;BME280;2386;42.138;24.746;2024-03-02T03:19:03;99194.63;;;10.34;100.00
4745;BME280;2386;42.138;24.746;2024-03-02T03:21:29;99194.22;;;10.42;100.00
4745;BME280;2386;42.138;24.746;2024-03-02T03:23:54;99188.97;;;10.36;100.00
4745;BME280;2386;42.138;24.746;2024-03-02T03:26:20;99185.81;;;10.56;100.00
4745;BME280;2386;42.138;24.746;2024-03-02T03:28:46;99177.09;;;10.53;100.00
4745;BME280;2386;42.138;24.746;2024-03-02T03:31:11;99178.34;;;10.63;100.00
4745;BME280;2386;42.138;24.746;2024-03-02T03:33:36;99178.16;;;10.52;100.00
4745;BME280;2386;42.138;24.746;2024-03-02T03:36:02;99178.06;;;10.47;100.00
4745;BME280;2386;42.138;24.746;2024-03-02T03:38:28;99172.47;;;10.37;100.00
4745;BME280;2386;42.138;24.746;2024-03-02T03:40:54;99178.06;;;10.47;100.00
4745;BME280;2386;42.138;24.746;2024-03-02T03:43:20;99173.59;;;10.41;100.00
4745;BME280;2386;42.138;24.746;2024-03-02T03:45:45;99176.59;;;10.40;100.00
4745;BME280;2386;42.138;24.746;2024-03-02T03:48:11;99176.50;;;10.51;100.00
4745;BME280;2386;42.138;24.746;2024-03-02T03:50:36;99173.66;;;10.30;100.00
4745;BME280;2386;42.138;24.746;2024-03-02T03:53:03;99179.38;;;10.45;100.00
4745;BME280;2386;42.138;24.746;2024-03-02T03:55:28;99182.13;;;10.33;100.00
4745;BME280;2386;42.138;24.746;2024-03-02T03:57:53;99176.03;;;10.26;100.00
4745;BME280;2386;42.138;24.746;2024-03-02T04:00:19;99180.63;;;10.26;100.00
4745;BME280;2386;42.138;24.746;2024-03-02T04:02:44;99172.72;;;10.24;100.00
4745;BME280;2386;42.138;24.746;2024-03-02T04:05:10;99184.16;;;10.14;100.00
4745;BME280;2386;42.138;24.746;2024-03-02T04:07:38;99183.31;;;10.14;100.00
4745;BME280;2386;42.138;24.746;2024-03-02T04:10:09;99186.63;;;10.16;100.00
4745;BME280;2386;42.138;24.746;2024-03-02T04:12:36;99192.75;;;10.23;100.00
4745;BME280;2386;42.138;24.746;2024-03-02T04:15:05;99189.47;;;10.21;100.00
4745;BME280;2386;42.138;24.746;2024-03-02T04:17:32;99187.69;;;10.27;100.00
4745;BME280;2386;42.138;24.746;2024-03-02T04:19:58;99198.34;;;10.45;100.00
4745;BME280;2386;42.138;24.746;2024-03-02T04:22:25;99195.88;;;10.43;100.00
4745;BME280;2386;42.138;24.746;2024-03-02T04:24:50;99192.34;;;10.43;100.00
4745;BME280;2386;42.138;24.746;2024-03-02T04:27:16;99195.13;;;10.19;100.00
4745;BME280;2386;42.138;24.746;2024-03-02T04:29:41;99190.50;;;10.32;100.00
4745;BME280;2386;42.138;24.746;2024-03-02T04:32:07;99193.22;;;10.32;100.00
4745;BME280;2386;42.138;24.746;2024-03-02T04:34:32;99199.22;;;10.34;100.00
4745;BME280;2386;42.138;24.746;2024-03-02T04:36:59;99191.56;;;10.19;100.00
4745;BME280;2386;42.138;24.746;2024-03-02T04:39:25;99194.53;;;10.06;100.00
4745;BME280;2386;42.138;24.746;2024-03-02T04:41:51;99189.09;;;10.17;100.00
4745;BME280;2386;42.138;24.746;2024-03-02T04:44:18;99187.91;;;10.13;100.00
4745;BME280;2386;42.138;24.746;2024-03-02T04:46:43;99181.69;;;10.13;100.00
4745;BME280;2386;42.138;24.746;2024-03-02T04:49:09;99180.28;;;10.22;100.00
4745;BME280;2386;42.138;24.746;2024-03-02T04:51:34;99182.50;;;10.25;100.00
4745;BME280;2386;42.138;24.746;2024-03-02T04:54:00;99182.75;;;10.24;100.00
4745;BME280;2386;42.138;24.746;2024-03-02T04:56:26;99189.22;;;10.34;100.00
4745;BME280;2386;42.138;24.746;2024-03-02T04:58:51;99194.88;;;10.21;100.00
4745;BME280;2386;42.138;24.746;2024-03-02T05:01:16;99187.81;;;10.20;100.00
4745;BME280;2386;42.138;24.746;2024-03-02T05:03:42;99184.94;;;10.38;100.00
4745;BME280;2386;42.138;24.746;2024-03-02T05:06:07;99204.31;;;10.30;100.00
4745;BME280;2386;42.138;24.746;2024-03-02T05:08:34;99193.69;;;10.17;100.00
4745;BME280;2386;42.138;24.746;2024-03-02T05:10:59;99196.75;;;10.09;100.00
4745;BME280;2386;42.138;24.746;2024-03-02T05:13:45;99197.22;;;10.17;100.00
4745;BME280;2386;42.138;24.746;2024-03-02T05:16:10;99198.75;;;10.13;100.00
4745;BME280;2386;42.138;24.746;2024-03-02T05:18:37;99204.44;;;10.24;100.00
4745;BME280;2386;42.138;24.746;2024-03-02T05:21:03;99197.56;;;10.33;100.00
4745;BME280;2386;42.138;24.746;2024-03-02T05:23:28;99195.09;;;10.31;100.00
4745;BME280;2386;42.138;24.746;2024-03-02T05:25:54;99201.22;;;10.15;100.00
4745;BME280;2386;42.138;24.746;2024-03-02T05:28:19;99210.69;;;10.24;100.00
4745;BME280;2386;42.138;24.746;2024-03-02T05:30:44;99205.25;;;10.24;100.00
4745;BME280;2386;42.138;24.746;2024-03-02T05:33:10;99215.03;;;10.25;100.00
4745;BME280;2386;42.138;24.746;2024-03-02T05:35:35;99215.75;;;10.20;100.00
4745;BME280;2386;42.138;24.746;2024-03-02T05:38:01;99217.50;;;10.15;100.00
4745;BME280;2386;42.138;24.746;2024-03-02T05:40:26;99223.16;;;10.02;100.00
4745;BME280;2386;42.138;24.746;2024-03-02T05:42:51;99227.75;;;9.89;100.00
4745;BME280;2386;42.138;24.746;2024-03-02T05:45:17;99224.69;;;10.09;100.00
4745;BME280;2386;42.138;24.746;2024-03-02T05:47:42;99225.28;;;10.23;100.00
4745;BME280;2386;42.138;24.746;2024-03-02T05:50:08;99228.47;;;10.08;100.00
4745;BME280;2386;42.138;24.746;2024-03-02T05:52:34;99228.47;;;10.08;100.00
4745;BME280;2386;42.138;24.746;2024-03-02T05:55:00;99228.94;;;9.94;100.00
4745;BME280;2386;42.138;24.746;2024-03-02T05:57:27;99229.88;;;9.99;100.00
4745;BME280;2386;42.138;24.746;2024-03-02T06:00:23;99223.63;;;9.99;100.00
4745;BME280;2386;42.138;24.746;2024-03-02T06:02:48;99218.22;;;9.99;100.00
4745;BME280;2386;42.138;24.746;2024-03-02T06:05:14;99211.72;;;10.00;100.00
4745;BME280;2386;42.138;24.746;2024-03-02T06:07:40;99213.50;;;10.06;100.00
4745;BME280;2386;42.138;24.746;2024-03-02T06:10:06;99222.69;;;10.05;100.00
4745;BME280;2386;42.138;24.746;2024-03-02T06:12:34;99218.91;;;10.06;100.00
4745;BME280;2386;42.138;24.746;2024-03-02T06:14:59;99208.66;;;10.08;100.00
4745;BME280;2386;42.138;24.746;2024-03-02T06:17:25;99216.56;;;10.09;100.00
4745;BME280;2386;42.138;24.746;2024-03-02T06:19:50;99214.31;;;10.18;100.00
4745;BME280;2386;42.138;24.746;2024-03-02T06:22:17;99225.97;;;10.07;100.00
4745;BME280;2386;42.138;24.746;2024-03-02T06:24:44;99227.63;;;10.08;100.00
4745;BME280;2386;42.138;24.746;2024-03-02T06:27:09;99229.16;;;10.04;100.00
4745;BME280;2386;42.138;24.746;2024-03-02T06:29:35;99222.91;;;10.03;100.00
4745;BME280;2386;42.138;24.746;2024-03-02T06:32:00;99230.94;;;10.10;100.00
4745;BME280;2386;42.138;24.746;2024-03-02T06:34:26;99236.22;;;10.05;100.00
4745;BME280;2386;42.138;24.746;2024-03-02T06:36:51;99234.09;;;10.18;100.00
4745;BME280;2386;42.138;24.746;2024-03-02T06:39:16;99236.47;;;10.27;100.00
4745;BME280;2386;42.138;24.746;2024-03-02T06:41:42;99239.75;;;10.17;100.00
4745;BME280;2386;42.138;24.746;2024-03-02T06:44:12;99226.91;;;10.36;100.00
4745;BME280;2386;42.138;24.746;2024-03-02T06:46:38;99233.75;;;10.38;100.00
4745;BME280;2386;42.138;24.746;2024-03-02T06:49:03;99240.00;;;10.39;100.00
4745;BME280;2386;42.138;24.746;2024-03-02T06:51:29;99237.41;;;10.32;100.00
4745;BME280;2386;42.138;24.746;2024-03-02T06:53:54;99248.84;;;10.34;100.00
4745;BME280;2386;42.138;24.746;2024-03-02T06:56:20;99250.72;;;10.34;100.00
4745;BME280;2386;42.138;24.746;2024-03-02T06:58:46;99255.31;;;10.33;100.00
4745;BME280;2386;42.138;24.746;2024-03-02T07:01:12;99255.09;;;10.35;100.00
4745;BME280;2386;42.138;24.746;2024-03-02T07:03:38;99254.03;;;10.36;100.00
4745;BME280;2386;42.138;24.746;2024-03-02T07:06:05;99258.03;;;10.33;100.00
4745;BME280;2386;42.138;24.746;2024-03-02T07:08:30;99255.88;;;10.47;100.00
4745;BME280;2386;42.138;24.746;2024-03-02T07:10:56;99246.16;;;10.63;100.00
4745;BME280;2386;42.138;24.746;2024-03-02T07:13:22;99245.91;;;10.64;100.00
4745;BME280;2386;42.138;24.746;2024-03-02T07:15:48;99239.59;;;10.47;100.00
4745;BME280;2386;42.138;24.746;2024-03-02T07:18:31;99228.03;;;10.51;100.00
4745;BME280;2386;42.138;24.746;2024-03-02T07:20:57;99236.16;;;10.51;100.00
4745;BME280;2386;42.138;24.746;2024-03-02T07:23:29;99245.75;;;10.42;100.00
4745;BME280;2386;42.138;24.746;2024-03-02T07:25:55;99248.09;;;10.50;100.00
4745;BME280;2386;42.138;24.746;2024-03-02T07:28:22;99251.75;;;10.44;100.00
4745;BME280;2386;42.138;24.746;2024-03-02T07:31:00;99252.81;;;10.43;100.00
4745;BME280;2386;42.138;24.746;2024-03-02T07:33:26;99249.47;;;10.65;100.00
4745;BME280;2386;42.138;24.746;2024-03-02T07:35:52;99257.50;;;10.60;100.00
4745;BME280;2386;42.138;24.746;2024-03-02T07:38:17;99254.66;;;10.54;100.00
4745;BME280;2386;42.138;24.746;2024-03-02T07:40:43;99260.03;;;10.78;100.00
4745;BME280;2386;42.138;24.746;2024-03-02T07:43:09;99262.34;;;10.58;100.00
4745;BME280;2386;42.138;24.746;2024-03-02T07:45:34;99259.88;;;10.44;100.00
4745;BME280;2386;42.138;24.746;2024-03-02T07:48:01;99256.09;;;10.57;100.00
4745;BME280;2386;42.138;24.746;2024-03-02T07:50:29;99254.41;;;10.68;100.00
4745;BME280;2386;42.138;24.746;2024-03-02T07:52:55;99247.63;;;10.82;100.00
4745;BME280;2386;42.138;24.746;2024-03-02T07:55:21;99255.88;;;10.87;100.00
4745;BME280;2386;42.138;24.746;2024-03-02T07:57:46;99249.66;;;10.75;100.00
4745;BME280;2386;42.138;24.746;2024-03-02T08:00:12;99257.53;;;10.88;100.00
4745;BME280;2386;42.138;24.746;2024-03-02T08:02:37;99269.53;;;10.92;100.00
4745;BME280;2386;42.138;24.746;2024-03-02T08:05:03;99273.13;;;11.09;100.00
4745;BME280;2386;42.138;24.746;2024-03-02T08:07:29;99270.47;;;10.98;100.00
4745;BME280;2386;42.138;24.746;2024-03-02T08:09:55;99279.34;;;10.93;100.00
4745;BME280;2386;42.138;24.746;2024-03-02T08:12:20;99274.78;;;10.82;100.00
4745;BME280;2386;42.138;24.746;2024-03-02T08:14:48;99275.66;;;10.99;100.00
4745;BME280;2386;42.138;24.746;2024-03-02T08:17:14;99276.44;;;11.11;100.00
4745;BME280;2386;42.138;24.746;2024-03-02T08:19:39;99274.38;;;10.90;100.00
4745;BME280;2386;42.138;24.746;2024-03-02T08:22:06;99270.81;;;11.01;100.00
4745;BME280;2386;42.138;24.746;2024-03-02T08:24:32;99267.53;;;11.16;100.00
4745;BME280;2386;42.138;24.746;2024-03-02T08:26:59;99259.72;;;11.19;100.00
4745;BME280;2386;42.138;24.746;2024-03-02T08:29:24;99257.00;;;11.19;100.00
4745;BME280;2386;42.138;24.746;2024-03-02T08:31:51;99260.97;;;11.12;100.00
4745;BME280;2386;42.138;24.746;2024-03-02T08:34:16;99269.28;;;11.22;100.00
4745;BME280;2386;42.138;24.746;2024-03-02T08:36:42;99267.47;;;11.28;100.00
4745;BME280;2386;42.138;24.746;2024-03-02T08:39:08;99258.75;;;11.26;100.00
4745;BME280;2386;42.138;24.746;2024-03-02T08:41:41;99273.78;;;11.16;100.00
4745;BME280;2386;42.138;24.746;2024-03-02T08:44:08;99260.78;;;11.02;100.00
4745;BME280;2386;42.138;24.746;2024-03-02T08:46:34;99269.34;;;11.10;100.00
4745;BME280;2386;42.138;24.746;2024-03-02T08:49:00;99261.13;;;11.05;100.00
4745;BME280;2386;42.138;24.746;2024-03-02T08:51:25;99265.41;;;11.18;100.00
4745;BME280;2386;42.138;24.746;2024-03-02T08:53:50;99262.75;;;11.06;100.00
4745;BME280;2386;42.138;24.746;2024-03-02T08:56:16;99255.13;;;11.20;100.00
4745;BME280;2386;42.138;24.746;2024-03-02T08:58:41;99256.28;;;11.24;100.00
4745;BME280;2386;42.138;24.746;2024-03-02T09:01:10;99257.00;;;11.19;100.00
4745;BME280;2386;42.138;24.746;2024-03-02T09:03:36;99258.56;;;11.15;100.00
4745;BME280;2386;42.138;24.746;2024-03-02T09:06:02;99259.81;;;11.25;100.00
4745;BME280;2386;42.138;24.746;2024-03-02T09:08:28;99263.44;;;11.30;100.00
4745;BME280;2386;42.138;24.746;2024-03-02T09:10:54;99263.69;;;11.29;100.00
4745;BME280;2386;42.138;24.746;2024-03-02T09:13:20;99259.19;;;11.34;100.00
4745;BME280;2386;42.138;24.746;2024-03-02T09:15:45;99264.13;;;11.37;100.00
4745;BME280;2386;42.138;24.746;2024-03-02T09:18:11;99266.09;;;11.42;100.00
4745;BME280;2386;42.138;24.746;2024-03-02T09:20:36;99269.81;;;11.52;100.00
4745;BME280;2386;42.138;24.746;2024-03-02T09:23:01;99280.44;;;11.54;100.00
4745;BME280;2386;42.138;24.746;2024-03-02T09:25:27;99275.66;;;11.44;100.00
4745;BME280;2386;42.138;24.746;2024-03-02T09:27:52;99266.28;;;11.52;100.00
4745;BME280;2386;42.138;24.746;2024-03-02T09:30:18;99270.41;;;11.55;100.00
4745;BME280;2386;42.138;24.746;2024-03-02T09:32:43;99273.75;;;11.45;100.00
4745;BME280;2386;42.138;24.746;2024-03-02T09:35:08;99273.53;;;11.63;100.00
4745;BME280;2386;42.138;24.746;2024-03-02T09:37:34;99273.28;;;11.65;100.00
4745;BME280;2386;42.138;24.746;2024-03-02T09:40:00;99271.56;;;11.75;100.00
4745;BME280;2386;42.138;24.746;2024-03-02T09:42:26;99275.28;;;11.69;100.00
4745;BME280;2386;42.138;24.746;2024-03-02T09:44:52;99268.72;;;11.82;100.00
4745;BME280;2386;42.138;24.746;2024-03-02T09:47:17;99272.41;;;11.76;100.00
4745;BME280;2386;42.138;24.746;2024-03-02T09:49:43;99281.19;;;11.66;100.00
4745;BME280;2386;42.138;24.746;2024-03-02T09:52:10;99271.22;;;11.55;100.00
4745;BME280;2386;42.138;24.746;2024-03-02T09:54:36;99275.75;;;11.66;100.00
4745;BME280;2386;42.138;24.746;2024-03-02T09:57:02;99272.38;;;11.93;100.00
4745;BME280;2386;42.138;24.746;2024-03-02T09:59:28;99273.13;;;12.05;100.00
4745;BME280;2386;42.138;24.746;2024-03-02T10:02:01;99268.75;;;12.04;100.00
4745;BME280;2386;42.138;24.746;2024-03-02T10:04:28;99273.84;;;12.17;100.00
4745;BME280;2386;42.138;24.746;2024-03-02T10:07:12;99267.91;;;12.20;100.00
4745;BME280;2386;42.138;24.746;2024-03-02T10:09:39;99268.09;;;12.13;100.00
4745;BME280;2386;42.138;24.746;2024-03-02T10:12:06;99266.50;;;11.79;100.00
4745;BME280;2386;42.138;24.746;2024-03-02T10:14:32;99265.56;;;11.90;100.00
4745;BME280;2386;42.138;24.746;2024-03-02T10:19:29;99267.75;;;12.27;100.00
4745;BME280;2386;42.138;24.746;2024-03-02T10:21:58;99261.88;;;12.35;100.00
4745;BME280;2386;42.138;24.746;2024-03-02T10:24:24;99263.53;;;12.36;100.00
4745;BME280;2386;42.138;24.746;2024-03-02T10:26:51;99258.66;;;12.38;100.00
4745;BME280;2386;42.138;24.746;2024-03-02T10:29:17;99257.81;;;12.37;100.00
4745;BME280;2386;42.138;24.746;2024-03-02T10:31:44;99253.59;;;12.46;100.00
4745;BME280;2386;42.138;24.746;2024-03-02T10:34:11;99254.81;;;12.56;100.00
4745;BME280;2386;42.138;24.746;2024-03-02T10:36:40;99244.19;;;12.54;100.00
4745;BME280;2386;42.138;24.746;2024-03-02T10:39:07;99242.34;;;12.60;100.00
4745;BME280;2386;42.138;24.746;2024-03-02T10:41:37;99242.50;;;12.75;100.00
4745;BME280;2386;42.138;24.746;2024-03-02T10:44:08;99232.75;;;12.79;100.00
4745;BME280;2386;42.138;24.746;2024-03-02T10:46:36;99221.03;;;12.78;100.00
4745;BME280;2386;42.138;24.746;2024-03-02T10:49:04;99224.59;;;12.79;100.00
4745;BME280;2386;42.138;24.746;2024-03-02T10:51:30;99219.09;;;12.74;100.00
4745;BME280;2386;42.138;24.746;2024-03-02T10:54:02;99217.69;;;12.71;100.00
4745;BME280;2386;42.138;24.746;2024-03-02T10:56:42;99222.19;;;12.82;100.00
4745;BME280;2386;42.138;24.746;2024-03-02T11:01:47;99216.34;;;12.47;100.00
4745;BME280;2386;42.138;24.746;2024-03-02T11:04:15;99215.72;;;12.01;100.00
4745;BME280;2386;42.138;24.746;2024-03-02T11:06:46;99212.38;;;12.16;100.00
4745;BME280;2386;42.138;24.746;2024-03-02T11:09:14;99212.53;;;12.26;100.00
4745;BME280;2386;42.138;24.746;2024-03-02T11:11:42;99206.53;;;12.46;100.00
4745;BME280;2386;42.138;24.746;2024-03-02T11:14:13;99205.78;;;12.50;100.00
4745;BME280;2386;42.138;24.746;2024-03-02T11:16:40;99200.41;;;12.56;100.00
4745;BME280;2386;42.138;24.746;2024-03-02T11:19:10;99203.78;;;12.68;100.00
4745;BME280;2386;42.138;24.746;2024-03-02T11:21:36;99202.09;;;12.62;100.00
4745;BME280;2386;42.138;24.746;2024-03-02T11:26:46;99200.75;;;12.64;100.00
4745;BME280;2386;42.138;24.746;2024-03-02T11:32:12;99195.72;;;12.78;100.00
4745;BME280;2386;42.138;24.746;2024-03-02T11:34:41;99195.59;;;12.90;100.00
4745;BME280;2386;42.138;24.746;2024-03-02T11:37:10;99190.25;;;13.00;100.00
4745;BME280;2386;42.138;24.746;2024-03-02T11:39:36;99190.44;;;12.93;100.00
4745;BME280;2386;42.138;24.746;2024-03-02T11:42:05;99177.28;;;12.85;100.00
4745;BME280;2386;42.138;24.746;2024-03-02T11:44:32;99178.38;;;12.84;100.00
4745;BME280;2386;42.138;24.746;2024-03-02T11:47:01;99181.09;;;12.84;100.00
4745;BME280;2386;42.138;24.746;2024-03-02T11:49:41;99186.13;;;12.97;100.00
4745;BME280;2386;42.138;24.746;2024-03-02T11:52:09;99176.47;;;13.11;100.00
4745;BME280;2386;42.138;24.746;2024-03-02T11:54:37;99165.06;;;13.14;100.00
4745;BME280;2386;42.138;24.746;2024-03-02T11:57:05;99165.19;;;13.25;100.00
4745;BME280;2386;42.138;24.746;2024-03-02T11:59:31;99158.75;;;13.36;100.00
4745;BME280;2386;42.138;24.746;2024-03-02T12:01:58;99163.84;;;13.64;100.00
4745;BME280;2386;42.138;24.746;2024-03-02T12:04:24;99161.78;;;13.81;100.00
4745;BME280;2386;42.138;24.746;2024-03-02T12:06:57;99173.88;;;13.96;100.00
4745;BME280;2386;42.138;24.746;2024-03-02T12:09:27;99167.91;;;14.04;100.00
4745;BME280;2386;42.138;24.746;2024-03-02T12:12:06;99158.38;;;14.11;100.00
4745;BME280;2386;42.138;24.746;2024-03-02T12:14:33;99164.47;;;13.76;100.00
4745;BME280;2386;42.138;24.746;2024-03-02T12:16:59;99163.69;;;13.81;100.00
4745;BME280;2386;42.138;24.746;2024-03-02T12:19:26;99155.25;;;13.82;100.00
4745;BME280;2386;42.138;24.746;2024-03-02T12:21:52;99155.59;;;13.96;100.00
4745;BME280;2386;42.138;24.746;2024-03-02T12:24:18;99148.59;;;14.10;100.00
4745;BME280;2386;42.138;24.746;2024-03-02T12:26:44;99144.22;;;14.09;100.00
4745;BME280;2386;42.138;24.746;2024-03-02T12:29:10;99149.75;;;14.30;100.00
4745;BME280;2386;42.138;24.746;2024-03-02T12:31:35;99143.94;;;14.16;100.00
4745;BME280;2386;42.138;24.746;2024-03-02T12:34:03;99150.44;;;14.00;100.00
4745;BME280;2386;42.138;24.746;2024-03-02T12:36:30;99144.09;;;13.89;100.00
4745;BME280;2386;42.138;24.746;2024-03-02T12:39:01;99151.06;;;14.22;100.00
4745;BME280;2386;42.138;24.746;2024-03-02T12:41:27;99149.72;;;14.25;100.00
4745;BME280;2386;42.138;24.746;2024-03-02T12:43:53;99152.56;;;14.45;100.00
4745;BME280;2386;42.138;24.746;2024-03-02T12:46:19;99154.66;;;13.75;100.00
4745;BME280;2386;42.138;24.746;2024-03-02T12:48:45;99165.47;;;13.65;100.00
4745;BME280;2386;42.138;24.746;2024-03-02T12:51:10;99164.25;;;13.83;100.00
4745;BME280;2386;42.138;24.746;2024-03-02T12:53:36;99165.03;;;13.78;100.00
4745;BME280;2386;42.138;24.746;2024-03-02T12:56:01;99170.06;;;13.97;100.00
4745;BME280;2386;42.138;24.746;2024-03-02T12:58:27;99170.06;;;13.60;100.00
4745;BME280;2386;42.138;24.746;2024-03-02T13:01:07;99166.97;;;13.46;100.00
4745;BME280;2386;42.138;24.746;2024-03-02T13:03:39;99168.25;;;13.33;100.00
4745;BME280;2386;42.138;24.746;2024-03-02T13:06:08;99175.75;;;12.94;100.00
4745;BME280;2386;42.138;24.746;2024-03-02T13:08:34;99171.59;;;12.87;100.00
4745;BME280;2386;42.138;24.746;2024-03-02T13:11:00;99176.47;;;13.11;100.00